Talcahuano, Chile
Current Conditions -  °F | °C
As of 7:00 PM on Monday 22 Dec 2014 (Local Time) from SCIE Reporting Station
Clear Clear  
Wind Chill: 64°   Ceiling: Unl
Heat Index: 64°   Visibility: 6mi
Dew Point: 45°   Wind: 20mph
Humidity: 49%   Direction: 220°SW
Pressure: 30.12"   Gusts: NA
Location:  36.74°S, 73.13°W
Report Text: SCIE 222300Z 22017KT CAVOK 18/07 Q1020
Loading
Personal Weather Stations






























Interactive Weather Map New forecast layout! Learn more

10-Day Weather Forecast

Advertisements
Track Severe Weather on mobile